メインページ
METAR-TAF:

METAR-TAF

空港 :

イースター島, チリ

マタベリ国際空港

緯度: 27-09S, 経度: 109-25W, 海抜: 51m

現時点の気象観測

当レポートは19分前の19:00(UTC)に作成
の風 8kt、北/北東から南/南東の間で変化する
気温 27°C
湿度 66%
気圧 1023 hPa
視程10km以上
高度3000ftの雲は散在している

METAR: SCIP 251900Z 09008KT 030V150 9999 SCT030 27/20 Q1023 NOSIG

時間: 14:19 (19:19 UTC)

予報

当レポートは2時間22分前の16:57(UTC)に作成
予報は25日の 18時(UTC)から 26日の 18時(UTC)まで有効
北/北東の風 8kt
視程10km以上
高度2000ftの雲は散在している
25日の 20時(UTC)から 25日の 22時(UTC)まで徐々に
の風 13kt
高度2000ftの雲は散在している
高度4000ftの雲は散在している
25日の 23時(UTC)から 26日の 04時(UTC)まで一時的に
北/北西の風 13kt
視程: 6000m
高度1800ftの雲は散在している
高度2500ftの千切れ雲あり
弱いにわか雨
26日の 08時(UTC)から 26日の 10時(UTC)まで徐々に
東/北東の風 8kt
高度2000ftの雲は散在している
26日の 14時(UTC)から 26日の 18時(UTC)まで一時的に
北/北東の風 13kt
視程: 7000m
高度2000ftの千切れ雲あり
弱いにわか雨

TAF: SCIP 251657Z 2518/2618 03008KT 9999 SCT020 TX28/2520Z TN21/2613Z BECMG 2520/2522 36013KT SCT020 SCT040 TEMPO 2523/2604 33013KT 6000 -SHRA SCT018 BKN025 BECMG 2608/2610 06008KT SCT020 TEMPO 2614/2618 03013KT 7000 -SHRA BKN020

4,000以上の空港の気象観測と天気予報(METAR報とTAF報)

利用可能な観測所は地図上に黄色い丸と赤い丸で示す。

丸の上にカーソルを重ねると観測所名を参照できる。

次にクリックすると気象観測と天気予報を参照できる。

マップの切り替え:黒色「×」印の緑ボタンをクリックして拡大、「-」印の緑ボタンをクリックして縮小、緑色の三角印をクリックして隣りの地図に切り替え


METAR-TAF: